createdAt,value
2022-12-24T00:01:11.521Z,11.30
2022-12-24T00:06:19.475Z,11.30
2022-12-24T00:11:21.930Z,11.30
2022-12-24T00:16:24.035Z,11.20
2022-12-24T00:21:26.029Z,11.20
2022-12-24T00:26:27.767Z,11.10
2022-12-24T00:31:29.710Z,11.00
2022-12-24T00:36:31.860Z,11.00
2022-12-24T00:41:33.635Z,11.00
2022-12-24T00:46:36.363Z,11.00
2022-12-24T00:51:38.554Z,11.00
2022-12-24T00:56:40.509Z,11.00
2022-12-24T01:01:42.446Z,10.90
2022-12-24T01:06:44.618Z,10.80
2022-12-24T01:11:46.499Z,10.70
2022-12-24T01:16:48.281Z,10.70
2022-12-24T01:21:50.121Z,10.60
2022-12-24T01:26:51.920Z,10.60
2022-12-24T01:31:53.687Z,10.60
2022-12-24T01:36:55.460Z,10.60
2022-12-24T01:42:15.743Z,10.60
2022-12-24T01:47:29.547Z,10.60
2022-12-24T01:52:35.207Z,10.60
2022-12-24T01:57:58.136Z,10.50
2022-12-24T02:03:00.641Z,10.40
2022-12-24T02:08:04.859Z,10.30
2022-12-24T02:13:07.332Z,10.40
2022-12-24T02:18:30.804Z,10.50
2022-12-24T02:24:03.847Z,10.60
2022-12-24T02:29:43.966Z,10.60
2022-12-24T02:34:51.432Z,10.60
2022-12-24T02:40:20.459Z,10.50
2022-12-24T02:45:29.468Z,10.50
2022-12-24T02:50:31.243Z,10.50
2022-12-24T02:56:13.590Z,10.50
2022-12-24T03:01:40.484Z,10.60
2022-12-24T03:06:42.304Z,10.60
2022-12-24T03:11:50.762Z,10.60
2022-12-24T03:16:52.634Z,10.70
2022-12-24T03:21:58.228Z,10.70
2022-12-24T03:27:00.798Z,10.60
2022-12-24T03:32:04.335Z,10.60
2022-12-24T03:37:06.184Z,10.60
2022-12-24T03:42:07.974Z,10.60
2022-12-24T03:47:09.762Z,10.50
2022-12-24T03:52:11.515Z,10.50
2022-12-24T03:57:13.303Z,10.40
2022-12-24T04:02:15.254Z,10.40
2022-12-24T04:07:17.195Z,10.40
2022-12-24T04:12:19.063Z,10.30
2022-12-24T04:17:20.871Z,10.50
2022-12-24T04:22:22.867Z,10.40
2022-12-24T04:27:30.073Z,10.40
2022-12-24T04:32:32.269Z,10.40
2022-12-24T04:37:34.456Z,10.50
2022-12-24T04:42:36.423Z,10.50
2022-12-24T04:47:38.228Z,10.50
2022-12-24T04:52:39.984Z,10.60
2022-12-24T04:57:41.899Z,10.70
2022-12-24T05:02:43.899Z,10.70
2022-12-24T05:07:45.772Z,10.70
2022-12-24T05:12:47.813Z,10.70
2022-12-24T05:17:49.694Z,10.70
2022-12-24T05:23:09.938Z,10.60
2022-12-24T05:28:11.711Z,10.70
2022-12-24T05:33:13.481Z,10.70
2022-12-24T05:38:15.239Z,10.60
2022-12-24T05:43:17.163Z,10.60
2022-12-24T05:48:18.921Z,10.50
2022-12-24T05:53:21.278Z,10.50
2022-12-24T05:58:23.262Z,10.40
2022-12-24T06:03:25.021Z,10.50
2022-12-24T06:08:27.534Z,10.50
2022-12-24T06:13:30.149Z,10.50
2022-12-24T06:18:33.990Z,10.30
2022-12-24T06:23:38.036Z,10.40
2022-12-24T06:28:39.804Z,10.40
2022-12-24T06:33:41.864Z,10.40
2022-12-24T06:38:43.874Z,10.30
2022-12-24T06:43:47.163Z,10.30
2022-12-24T06:48:49.425Z,10.30
2022-12-24T06:53:51.327Z,10.30
2022-12-24T06:58:53.136Z,10.30
2022-12-24T07:03:54.938Z,10.20
2022-12-24T07:08:57.213Z,10.20
2022-12-24T07:13:59.018Z,10.20
2022-12-24T07:19:00.829Z,10.20
2022-12-24T07:24:02.692Z,10.20
2022-12-24T07:29:04.467Z,10.10
2022-12-24T07:34:06.308Z,10.20
2022-12-24T07:39:08.069Z,10.20
2022-12-24T07:44:13.789Z,10.10
2022-12-24T07:49:15.602Z,10.10
2022-12-24T07:54:17.382Z,10.10
2022-12-24T07:59:20.310Z,10.10
2022-12-24T08:04:22.245Z,10.10
2022-12-24T08:09:23.991Z,10.10
2022-12-24T08:14:25.751Z,10.20
2022-12-24T08:19:27.650Z,10.20
2022-12-24T08:24:29.429Z,10.20
2022-12-24T08:29:31.204Z,10.30
2022-12-24T08:34:32.973Z,10.20
2022-12-24T08:39:34.808Z,10.40
2022-12-24T08:44:36.576Z,10.40
2022-12-24T08:49:39.578Z,10.40
2022-12-24T08:54:41.392Z,10.50
2022-12-24T08:59:43.305Z,10.50
2022-12-24T09:04:45.532Z,10.50
2022-12-24T09:09:47.481Z,10.50
2022-12-24T09:14:51.556Z,10.50
2022-12-24T09:19:53.327Z,10.60
2022-12-24T09:24:55.193Z,10.60
2022-12-24T09:29:57.116Z,10.70
2022-12-24T09:34:59.001Z,10.60
2022-12-24T09:40:00.828Z,10.70
2022-12-24T09:45:14.558Z,10.80
2022-12-24T09:51:01.072Z,10.80
2022-12-24T09:56:07.617Z,10.90
2022-12-24T10:01:14.426Z,10.90
2022-12-24T10:06:22.357Z,11.00
2022-12-24T10:11:54.018Z,11.10
2022-12-24T10:17:10.521Z,11.10
2022-12-24T10:22:31.050Z,11.10
2022-12-24T10:27:38.197Z,11.20
2022-12-24T10:32:40.930Z,11.20
2022-12-24T10:37:48.907Z,11.20
2022-12-24T10:42:53.727Z,11.30
2022-12-24T10:48:03.984Z,11.50
2022-12-24T10:53:34.143Z,11.40
2022-12-24T10:58:36.657Z,11.40
2022-12-24T11:03:39.336Z,11.40
2022-12-24T11:08:44.047Z,11.40
2022-12-24T11:13:51.825Z,11.40
2022-12-24T11:18:56.197Z,11.40
2022-12-24T11:24:09.235Z,11.50
2022-12-24T11:29:26.210Z,11.60
2022-12-24T11:34:31.706Z,11.50
2022-12-24T11:39:41.017Z,11.60
2022-12-24T11:44:49.490Z,11.60
2022-12-24T11:49:51.294Z,11.60
2022-12-24T11:55:16.940Z,11.70
2022-12-24T12:00:20.168Z,11.70
2022-12-24T12:05:27.429Z,11.70
2022-12-24T12:10:36.668Z,11.70
2022-12-24T12:15:47.391Z,11.70
2022-12-24T12:20:52.895Z,11.70
2022-12-24T12:26:12.696Z,11.70
2022-12-24T12:31:42.534Z,11.80
2022-12-24T12:36:51.717Z,11.80
2022-12-24T12:42:04.117Z,11.90
2022-12-24T12:47:31.787Z,11.90
2022-12-24T12:52:59.451Z,11.90
2022-12-24T12:58:06.642Z,11.90
2022-12-24T13:03:30.089Z,12.00
2022-12-24T13:09:09.324Z,12.00
2022-12-24T13:14:19.711Z,12.00
2022-12-24T13:19:30.332Z,12.00
2022-12-24T13:24:36.100Z,12.00
2022-12-24T13:29:58.448Z,12.00
2022-12-24T13:35:05.830Z,12.00
2022-12-24T13:40:10.560Z,12.00
2022-12-24T13:45:30.911Z,11.90
2022-12-24T13:50:53.434Z,11.90
2022-12-24T13:56:25.233Z,11.90
2022-12-24T14:01:37.853Z,11.90
2022-12-24T14:06:42.788Z,11.90
2022-12-24T14:11:53.633Z,11.90
2022-12-24T14:16:59.007Z,12.30
2022-12-24T14:22:32.043Z,12.30
2022-12-24T14:27:43.096Z,12.70
2022-12-24T14:32:47.366Z,12.20
2022-12-24T14:37:52.408Z,12.30
2022-12-24T14:43:29.755Z,12.30
2022-12-24T14:48:37.258Z,12.30
2022-12-24T14:54:00.298Z,12.20
2022-12-24T14:59:15.330Z,12.10
2022-12-24T15:04:18.497Z,11.90
2022-12-24T15:09:26.123Z,11.70
2022-12-24T15:14:30.363Z,11.70
2022-12-24T15:19:39.581Z,11.60
2022-12-24T15:24:47.029Z,11.50
2022-12-24T15:29:52.263Z,11.30
2022-12-24T15:34:55.509Z,11.30
2022-12-24T15:39:57.277Z,11.20
2022-12-24T15:45:14.651Z,11.10
2022-12-24T15:50:22.188Z,10.90
2022-12-24T15:55:40.290Z,10.80
2022-12-24T16:00:42.401Z,10.70
2022-12-24T16:05:44.696Z,10.60
2022-12-24T16:10:50.613Z,10.60
2022-12-24T16:15:59.988Z,10.30
2022-12-24T16:21:03.086Z,10.20
2022-12-24T16:26:05.378Z,10.20
2022-12-24T16:31:07.532Z,10.30
2022-12-24T16:36:09.451Z,10.30
2022-12-24T16:41:11.217Z,10.30
2022-12-24T16:46:13.686Z,10.30
2022-12-24T16:51:15.545Z,10.20
2022-12-24T16:56:17.554Z,10.30
2022-12-24T17:01:19.369Z,10.30
2022-12-24T17:06:21.193Z,10.20
2022-12-24T17:11:25.717Z,10.20
2022-12-24T17:16:27.775Z,10.10
2022-12-24T17:21:29.630Z,10.10
2022-12-24T17:26:31.466Z,10.10
2022-12-24T17:31:34.169Z,10.20
2022-12-24T17:36:36.050Z,10.10
2022-12-24T17:41:37.829Z,10.10
2022-12-24T17:46:39.940Z,10.00
2022-12-24T17:51:45.743Z,10.00
2022-12-24T17:56:47.989Z,9.80
2022-12-24T18:01:49.890Z,9.90
2022-12-24T18:06:56.278Z,9.80
2022-12-24T18:12:03.674Z,9.70
2022-12-24T18:17:05.444Z,9.70
2022-12-24T18:22:07.207Z,9.80
2022-12-24T18:27:08.972Z,9.70
2022-12-24T18:32:12.927Z,9.60
2022-12-24T18:37:14.699Z,9.60
2022-12-24T18:42:16.497Z,9.60
2022-12-24T18:47:18.445Z,9.60
2022-12-24T18:52:22.806Z,9.50
2022-12-24T18:57:24.857Z,9.60
2022-12-24T19:02:26.856Z,9.50
2022-12-24T19:07:28.766Z,9.50
2022-12-24T19:12:30.510Z,9.50
2022-12-24T19:17:32.526Z,9.40
2022-12-24T19:22:34.280Z,9.40
2022-12-24T19:27:36.034Z,9.40
2022-12-24T19:32:38.228Z,9.40
2022-12-24T19:37:40.036Z,9.40
2022-12-24T19:42:41.783Z,9.40
2022-12-24T19:47:43.554Z,9.40
2022-12-24T19:52:45.777Z,9.50
2022-12-24T19:57:47.548Z,9.50
2022-12-24T20:02:49.480Z,9.50
2022-12-24T20:07:51.515Z,9.60
2022-12-24T20:12:53.280Z,9.60
2022-12-24T20:17:55.038Z,9.60
2022-12-24T20:22:57.531Z,9.60
2022-12-24T20:27:59.350Z,9.70
2022-12-24T20:33:01.233Z,9.70
2022-12-24T20:38:02.998Z,9.70
2022-12-24T20:43:04.943Z,9.70
2022-12-24T20:48:07.267Z,9.70
2022-12-24T20:53:09.083Z,9.70
2022-12-24T20:58:13.216Z,9.70
2022-12-24T21:03:16.660Z,9.80
2022-12-24T21:08:18.485Z,9.80
2022-12-24T21:13:20.262Z,9.80
2022-12-24T21:18:22.331Z,9.90
2022-12-24T21:23:24.151Z,9.90
2022-12-24T21:28:26.070Z,9.90
2022-12-24T21:33:30.912Z,9.90
2022-12-24T21:38:35.885Z,9.90
2022-12-24T21:43:38.527Z,9.80
2022-12-24T21:48:59.029Z,9.80
2022-12-24T21:54:19.449Z,9.90
2022-12-24T21:59:26.366Z,9.90
2022-12-24T22:04:30.200Z,10.00
2022-12-24T22:09:50.592Z,9.90
2022-12-24T22:14:52.415Z,9.90
2022-12-24T22:19:55.093Z,9.90
2022-12-24T22:24:56.925Z,9.80
2022-12-24T22:29:58.853Z,9.90
2022-12-24T22:35:00.749Z,9.90
2022-12-24T22:40:02.598Z,9.90
2022-12-24T22:45:05.550Z,9.80
2022-12-24T22:50:08.169Z,9.90
2022-12-24T22:55:10.024Z,9.90
2022-12-24T23:00:35.427Z,9.90
2022-12-24T23:05:38.266Z,10.00
2022-12-24T23:10:40.971Z,10.10
2022-12-24T23:15:43.226Z,10.10
2022-12-24T23:20:45.675Z,10.10
2022-12-24T23:25:47.474Z,10.20
2022-12-24T23:30:57.825Z,10.20
2022-12-24T23:35:59.947Z,10.20
2022-12-24T23:41:04.920Z,10.20
2022-12-24T23:46:06.977Z,10.20
2022-12-24T23:51:19.984Z,10.20
2022-12-24T23:56:22.888Z,10.20
